St Pierre — FIDX — position and weather

sailwx.info

Track history (hours):
 
Tides and Currents Weather Stations Pressure Air Temp Water Temp Dewpoint Dewpoint Depression Visibility Wind Speed Wind Dir Waves Ship Positions

St Pierre

Last reported at 2016-May-30 12:33 UTC. Time now 2016-May-30 12:39 UTC.
Position N 47°12' W 001°37'.

Length 84 m; draft 5.8 m.

Type: Cargo ship. MMSI: 228024800.

Date/timePositionNaut miles runAvg speedWind from/ knotsBaromVisibWave heightAir tempDewpointWater temp
2016-May-30 12:33N 47°12' W 001°37'0 0.0
2016-May-30 11:34N 47°12' W 001°37'0 0.0
2016-May-30 10:33N 47°12' W 001°37'0 0.0
2016-May-30 09:33N 47°12' W 001°37'0 0.0
2016-May-30 08:33N 47°12' W 001°37'0 0.0
2016-May-30 07:33N 47°12' W 001°37'0 0.0
2016-May-30 06:33N 47°12' W 001°37'0 0.0
2016-May-30 05:34N 47°12' W 001°37'0 0.0
2016-May-30 04:33N 47°12' W 001°37'0 0.0
2016-May-30 03:33N 47°12' W 001°37'0 0.0
2016-May-30 02:34N 47°12' W 001°37'0 0.0
2016-May-30 01:33N 47°12' W 001°37'0 0.0
2016-May-30 00:33N 47°12' W 001°37'0 0.0
2016-May-29 23:34N 47°12' W 001°37'0 0.0
2016-May-29 22:34N 47°12' W 001°37'0 0.0
2016-May-29 21:33N 47°12' W 001°37'0 0.0
2016-May-29 20:33N 47°12' W 001°37'0 0.0
2016-May-29 19:34N 47°12' W 001°37'0 0.0
2016-May-29 18:33N 47°12' W 001°37'0 0.0
2016-May-29 17:33N 47°12' W 001°37'0 0.0
2016-May-29 16:33N 47°12' W 001°37'0 0.0
2016-May-29 15:33N 47°12' W 001°37'0 0.0
2016-May-29 14:33N 47°12' W 001°37'0 0.0
2016-May-29 13:33N 47°12' W 001°37'0 0.0
2016-May-29 12:34N 47°12' W 001°37'0 0.0
2016-May-29 11:33N 47°12' W 001°37'0 0.0
2016-May-29 10:33N 47°12' W 001°37'0 0.0
2016-May-29 09:34N 47°12' W 001°37'0 0.0
2016-May-29 08:33N 47°12' W 001°37'0 0.0
2016-May-29 07:33N 47°12' W 001°37'0 0.0
2016-May-29 06:34N 47°12' W 001°37'0 0.0
2016-May-29 05:33N 47°12' W 001°37'0 0.0
2016-May-29 04:33N 47°12' W 001°37'0 0.0
2016-May-29 03:33N 47°12' W 001°37'0 0.0
2016-May-29 02:33N 47°12' W 001°37'0 0.0
2016-May-29 01:34N 47°12' W 001°37'0 0.0
2016-May-29 00:34N 47°12' W 001°37'0 0.0
2016-May-28 23:34N 47°12' W 001°37'0 0.0
2016-May-28 22:33N 47°12' W 001°37'0 0.0
2016-May-28 21:33N 47°12' W 001°37'0 0.0
2016-May-28 20:34N 47°12' W 001°37'0 0.0
2016-May-28 19:33N 47°12' W 001°37'0 0.0
2016-May-28 18:33N 47°12' W 001°37'0 0.0
2016-May-28 17:33N 47°12' W 001°37'0 0.0
2016-May-28 16:33N 47°12' W 001°37'0 0.0
2016-May-28 15:33N 47°12' W 001°37'0 0.0
2016-May-28 14:34N 47°12' W 001°37'0 0.0
2016-May-28 13:34N 47°12' W 001°37'0 0.0
2016-May-28 12:33N 47°12' W 001°37'0 0.0
2016-May-28 11:33N 47°12' W 001°37'0 0.0
2016-May-28 10:33N 47°12' W 001°37'0 0.0
2016-May-28 09:33N 47°12' W 001°37'0 0.0
2016-May-28 08:33N 47°12' W 001°37'0 0.0
2016-May-28 07:33N 47°12' W 001°37'0 0.0
2016-May-28 06:33N 47°12' W 001°37'0 0.0
2016-May-28 05:33N 47°12' W 001°37'0 0.0
2016-May-28 04:33N 47°12' W 001°37'0 0.0
2016-May-28 03:33N 47°12' W 001°37'0 0.0
2016-May-28 02:33N 47°12' W 001°37'0 0.0
2016-May-28 01:34N 47°12' W 001°37'0 0.0
2016-May-28 00:33N 47°12' W 001°37'0 0.0
2016-May-27 23:33N 47°12' W 001°37'0 0.0
2016-May-27 22:33N 47°12' W 001°37'0 0.0
2016-May-27 21:34N 47°12' W 001°37'0 0.0
2016-May-27 20:34N 47°12' W 001°37'1 0.7
2016-May-27 19:33N 47°12' W 001°38'0 0.0
2016-May-27 18:33N 47°12' W 001°38'4 3.6
2016-May-27 17:33N 47°12' W 001°43'1010.5
2016-May-27 16:33N 47°17' W 001°57'1010.2
2016-May-27 15:33N 47°16' W 002°12'1010.3
2016-May-27 14:33N 47°07' W 002°21'3 2.6
2016-May-27 13:33N 47°05' W 002°21'0 0.0
2016-May-27 12:33N 47°05' W 002°21'0 0.2
2016-May-27 11:33N 47°05' W 002°21'4 3.6
2016-May-27 10:32N 47°08' W 002°20'1010.4
2016-May-27 09:33N 47°16' W 002°11'1010.1
2016-May-27 08:34N 47°17' W 001°56'10 9.7
2016-May-27 07:33N 47°12' W 001°43'4 3.8
2016-May-27 06:34N 47°12' W 001°38'0 0.0
2016-May-27 05:34N 47°12' W 001°38'7 7.4
2016-May-27 04:34N 47°13' W 001°49'10 9.9
2016-May-27 03:33N 47°18' W 002°01'10 9.6
2016-May-27 02:33N 47°14' W 002°15'10 9.8
2016-May-27 01:33N 47°05' W 002°21'1 0.8
2016-May-27 00:33N 47°05' W 002°21'0 0.3
2016-May-26 23:34N 47°05' W 002°21'0 0.0
2016-May-26 22:33N 47°05' W 002°21'7 7.0
2016-May-26 21:33N 47°12' W 002°18'1111.4
2016-May-26 20:33N 47°18' W 002°04'1111.4
2016-May-26 19:33N 47°13' W 001°49'7 7.4
2016-May-26 18:34N 47°12' W 001°38'0 0.0
2016-May-26 17:33N 47°12' W 001°38'2 2.4
2016-May-26 16:32N 47°12' W 001°41'1110.9
2016-May-26 15:33N 47°17' W 001°56'1110.6
2016-May-26 14:33N 47°16' W 002°11'1110.6
2016-May-26 13:33N 47°08' W 002°20'1 1.3
2016-May-26 12:33N 47°06' W 002°21'0 0.0
2016-May-26 11:34N 47°06' W 002°21'0 0.0
2016-May-26 10:33N 47°06' W 002°21'0 0.0
2016-May-26 09:33N 47°06' W 002°21'0 0.0
2016-May-26 08:33N 47°06' W 002°21'0 0.1
2016-May-26 07:34N 47°06' W 002°20'1 0.7
2016-May-26 06:34N 47°06' W 002°21'0 0.3
2016-May-26 05:33N 47°06' W 002°21'0 0.1
2016-May-26 04:34N 47°06' W 002°21'0 0.0
2016-May-26 03:34N 47°06' W 002°21'0 0.1
2016-May-26 02:32N 47°06' W 002°21'8 8.1
2016-May-26 01:33N 47°09' W 002°32'9 8.9
2016-May-26 00:33N 47°14' W 002°43'9 8.8
2016-May-25 23:33N 47°18' W 002°55'9 8.9
2016-May-25 22:33N 47°22' W 003°06'9 8.5
2016-May-25 21:33N 47°29' W 003°13'9 9.3
2016-May-25 20:33N 47°38' W 003°19'7 7.3
2016-May-25 19:34N 47°45' W 003°19'0 0.1
2016-May-25 18:33N 47°45' W 003°19'0 0.0
2016-May-25 17:33N 47°45' W 003°19'1 0.8
2016-May-25 16:34N 47°44' W 003°20'1 0.7
2016-May-25 15:33N 47°44' W 003°21'0 0.0
2016-May-25 14:33N 47°44' W 003°21'1 0.6
2016-May-25 13:33N 47°44' W 003°22'4 4.4
2016-May-25 12:33N 47°40' W 003°25'6 5.6
2016-May-25 11:33N 47°36' W 003°18'8 7.6
2016-May-25 10:33N 47°29' W 003°14'1111.0
2016-May-25 09:34N 47°21' W 003°03'1110.9
2016-May-25 08:34N 47°16' W 002°49'1110.7
2016-May-25 07:33N 47°10' W 002°35'1010.3
2016-May-25 06:33N 47°05' W 002°22'1 1.0
2016-May-25 05:34N 47°05' W 002°21'0 0.1
2016-May-25 04:33N 47°05' W 002°21'1 1.1
2016-May-25 03:33N 47°06' W 002°21'7 6.8
2016-May-25 02:32N 47°13' W 002°18'0 0.0
2016-May-25 01:32N 47°13' W 002°18'0 0.1
2016-May-25 00:32N 47°12' W 002°18'0 0.0
2016-May-24 23:32N 47°12' W 002°18'0 0.0
2016-May-24 22:32N 47°12' W 002°18'0 0.0
2016-May-24 21:32N 47°12' W 002°18'0 0.0
2016-May-24 20:32N 47°12' W 002°18'0 0.0
2016-May-24 19:29N 47°12' W 002°18'0 0.0
2016-May-24 18:32N 47°12' W 002°18'0 0.0
2016-May-24 17:30N 47°12' W 002°18'5 5.7
2016-May-24 16:33N 47°16' W 002°12'2 2.2
2016-May-24 15:33N 47°15' W 002°15'10 9.7
2016-May-24 14:29N 47°09' W 002°27'4 3.6
2016-May-24 13:30N 47°07' W 002°32'0 0.3
2016-May-24 12:30N 47°07' W 002°32'0 0.1
2016-May-24 11:30N 47°07' W 002°32'0 0.0
2016-May-24 10:29N 47°07' W 002°32'0 0.0
2016-May-24 09:25N 47°07' W 002°32'0 0.0
2016-May-24 08:25N 47°07' W 002°32'0 0.0
2016-May-24 07:29N 47°07' W 002°32'0 0.0
2016-May-24 06:30N 47°07' W 002°32'0 0.0
2016-May-24 05:29N 47°07' W 002°32'0 0.1
2016-May-24 04:30N 47°07' W 002°32'0 0.1
2016-May-24 03:33N 47°07' W 002°32'0 0.0
2016-May-24 02:33N 47°07' W 002°32'0 0.0
2016-May-24 01:33N 47°07' W 002°32'0 0.0
2016-May-24 00:34N 47°07' W 002°32'0 0.1
2016-May-23 23:29N 47°07' W 002°32'0 0.0
2016-May-23 22:33N 47°07' W 002°32'0 0.0
2016-May-23 21:33N 47°07' W 002°32'0 0.0
2016-May-23 20:34N 47°07' W 002°32'7 6.9
2016-May-23 19:33N 47°09' W 002°22'1211.5
2016-May-23 18:33N 47°17' W 002°10'1111.4
2016-May-23 17:33N 47°17' W 001°54'9 8.9
2016-May-23 16:33N 47°12' W 001°42'4 3.7
2016-May-23 15:34N 47°12' W 001°37'0 0.0
2016-May-23 14:33N 47°12' W 001°37'0 0.0
2016-May-23 13:33N 47°12' W 001°37'0 0.0
2016-May-23 12:33N 47°12' W 001°37'0 0.0
2016-May-23 11:34N 47°12' W 001°37'0 0.0
2016-May-23 10:34N 47°12' W 001°37'0 0.0
2016-May-23 09:34N 47°12' W 001°37'0 0.0
2016-May-23 08:34N 47°12' W 001°37'0 0.0
2016-May-23 07:33N 47°12' W 001°37'0 0.0
2016-May-23 06:34N 47°12' W 001°37'0 0.0
2016-May-23 05:33N 47°12' W 001°37'0 0.0
2016-May-23 04:33N 47°12' W 001°37'0 0.0
2016-May-23 03:33N 47°12' W 001°37'0 0.0
2016-May-23 02:33N 47°12' W 001°37'0 0.0
2016-May-23 01:34N 47°12' W 001°37'0 0.0
2016-May-23 00:33N 47°12' W 001°37'0 0.0
2016-May-22 23:33N 47°12' W 001°37'0 0.0
2016-May-22 22:33N 47°12' W 001°37'0 0.0
2016-May-22 21:33N 47°12' W 001°37'0 0.0
2016-May-22 20:34N 47°12' W 001°37'0 0.0
2016-May-22 19:33N 47°12' W 001°37'0 0.0
2016-May-22 18:33N 47°12' W 001°37'0 0.0
2016-May-22 17:34N 47°12' W 001°37'0 0.0
2016-May-22 16:34N 47°12' W 001°37'0 0.0
2016-May-22 15:33N 47°12' W 001°37'0 0.0
2016-May-22 14:33N 47°12' W 001°37'0 0.0
2016-May-22 13:33N 47°12' W 001°37'0 0.0
2016-May-22 12:33N 47°12' W 001°37'0 0.0
2016-May-22 11:34N 47°12' W 001°37'0 0.0
2016-May-22 10:33N 47°12' W 001°37'0 0.0
2016-May-22 09:33N 47°12' W 001°37'0 0.0
2016-May-22 08:33N 47°12' W 001°37'0 0.0
2016-May-22 07:33N 47°12' W 001°37'0 0.0
2016-May-22 06:34N 47°12' W 001°37'0 0.0
2016-May-22 05:33N 47°12' W 001°37'0 0.0
2016-May-22 04:33N 47°12' W 001°37'0 0.0
2016-May-22 03:34N 47°12' W 001°37'0 0.0
2016-May-22 02:33N 47°12' W 001°37'0 0.0
2016-May-22 01:33N 47°12' W 001°37'0 0.0
2016-May-22 00:34N 47°12' W 001°37'0 0.0
2016-May-21 23:34N 47°12' W 001°37'0 0.0
2016-May-21 22:34N 47°12' W 001°37'0 0.0
2016-May-21 21:33N 47°12' W 001°37'0 0.0
2016-May-21 20:33N 47°12' W 001°37'0 0.0
2016-May-21 19:33N 47°12' W 001°37'0 0.0
2016-May-21 18:33N 47°12' W 001°37'0 0.0
2016-May-21 17:33N 47°12' W 001°37'0 0.0
2016-May-21 16:34N 47°12' W 001°37'0 0.0
2016-May-21 15:34N 47°12' W 001°37'0 0.0
2016-May-21 14:33N 47°12' W 001°37'0 0.0
2016-May-21 13:34N 47°12' W 001°37'0 0.0
2016-May-21 12:33N 47°12' W 001°37'0 0.0
2016-May-21 11:34N 47°12' W 001°37'0 0.0
2016-May-21 10:33N 47°12' W 001°37'0 0.0
2016-May-21 09:33N 47°12' W 001°37'1 0.8
2016-May-21 08:34N 47°12' W 001°38'0 0.1
2016-May-21 07:34N 47°12' W 001°38'0 0.0
2016-May-21 06:34N 47°12' W 001°38'0 0.0
2016-May-21 05:33N 47°12' W 001°38'4 3.8
2016-May-21 04:34N 47°12' W 001°43'9 9.2
2016-May-21 03:34N 47°17' W 001°55'1110.5
2016-May-21 02:33N 47°16' W 002°11'1111.0
2016-May-21 01:33N 47°07' W 002°20'3 2.8
2016-May-21 00:34N 47°05' W 002°21'0 0.2
2016-May-20 23:34N 47°05' W 002°21'0 0.3
2016-May-20 22:33N 47°05' W 002°21'1211.7
2016-May-20 21:33N 47°11' W 002°36'1212.1
2016-May-20 20:34N 47°17' W 002°52'1212.1
2016-May-20 19:34N 47°23' W 003°07'1211.8
2016-May-20 18:33N 47°33' W 003°16'1111.2
2016-May-20 17:33N 47°43' W 003°22'2 2.4
2016-May-20 16:33N 47°45' W 003°19'0 0.0
2016-May-20 15:33N 47°45' W 003°19'0 0.0
2016-May-20 14:33N 47°45' W 003°19'2 1.8
2016-May-20 13:34N 47°44' W 003°21'5 4.5
2016-May-20 12:34N 47°40' W 003°24'  
Track history (hours):
 
Tides and Currents Weather Stations Pressure Air Temp Water Temp Dewpoint Dewpoint Depression Visibility Wind Speed Wind Dir Waves Ship Positions

St Pierre

Last reported at 2016-May-30 12:33 UTC. Time now 2016-May-30 12:39 UTC.
Position N 47°12' W 001°37'.

Length 84 m; draft 5.8 m.

Type: Cargo ship. MMSI: 228024800.

Date/timePositionNaut miles runAvg speedWind from/ knotsBaromVisibWave heightAir tempDewpointWater temp
2016-May-30 12:33N 47°12' W 001°37'0 0.0
2016-May-30 11:34N 47°12' W 001°37'0 0.0
2016-May-30 10:33N 47°12' W 001°37'0 0.0
2016-May-30 09:33N 47°12' W 001°37'0 0.0
2016-May-30 08:33N 47°12' W 001°37'0 0.0
2016-May-30 07:33N 47°12' W 001°37'0 0.0
2016-May-30 06:33N 47°12' W 001°37'0 0.0
2016-May-30 05:34N 47°12' W 001°37'0 0.0
2016-May-30 04:33N 47°12' W 001°37'0 0.0
2016-May-30 03:33N 47°12' W 001°37'0 0.0
2016-May-30 02:34N 47°12' W 001°37'0 0.0
2016-May-30 01:33N 47°12' W 001°37'0 0.0
2016-May-30 00:33N 47°12' W 001°37'0 0.0
2016-May-29 23:34N 47°12' W 001°37'0 0.0
2016-May-29 22:34N 47°12' W 001°37'0 0.0
2016-May-29 21:33N 47°12' W 001°37'0 0.0
2016-May-29 20:33N 47°12' W 001°37'0 0.0
2016-May-29 19:34N 47°12' W 001°37'0 0.0
2016-May-29 18:33N 47°12' W 001°37'0 0.0
2016-May-29 17:33N 47°12' W 001°37'0 0.0
2016-May-29 16:33N 47°12' W 001°37'0 0.0
2016-May-29 15:33N 47°12' W 001°37'0 0.0
2016-May-29 14:33N 47°12' W 001°37'0 0.0
2016-May-29 13:33N 47°12' W 001°37'0 0.0
2016-May-29 12:34N 47°12' W 001°37'0 0.0
2016-May-29 11:33N 47°12' W 001°37'0 0.0
2016-May-29 10:33N 47°12' W 001°37'0 0.0
2016-May-29 09:34N 47°12' W 001°37'0 0.0
2016-May-29 08:33N 47°12' W 001°37'0 0.0
2016-May-29 07:33N 47°12' W 001°37'0 0.0
2016-May-29 06:34N 47°12' W 001°37'0 0.0
2016-May-29 05:33N 47°12' W 001°37'0 0.0
2016-May-29 04:33N 47°12' W 001°37'0 0.0
2016-May-29 03:33N 47°12' W 001°37'0 0.0
2016-May-29 02:33N 47°12' W 001°37'0 0.0
2016-May-29 01:34N 47°12' W 001°37'0 0.0
2016-May-29 00:34N 47°12' W 001°37'0 0.0
2016-May-28 23:34N 47°12' W 001°37'0 0.0
2016-May-28 22:33N 47°12' W 001°37'0 0.0
2016-May-28 21:33N 47°12' W 001°37'0 0.0
2016-May-28 20:34N 47°12' W 001°37'0 0.0
2016-May-28 19:33N 47°12' W 001°37'0 0.0
2016-May-28 18:33N 47°12' W 001°37'0 0.0
2016-May-28 17:33N 47°12' W 001°37'0 0.0
2016-May-28 16:33N 47°12' W 001°37'0 0.0
2016-May-28 15:33N 47°12' W 001°37'0 0.0
2016-May-28 14:34N 47°12' W 001°37'0 0.0
2016-May-28 13:34N 47°12' W 001°37'0 0.0
2016-May-28 12:33N 47°12' W 001°37'0 0.0
2016-May-28 11:33N 47°12' W 001°37'0 0.0
2016-May-28 10:33N 47°12' W 001°37'0 0.0
2016-May-28 09:33N 47°12' W 001°37'0 0.0
2016-May-28 08:33N 47°12' W 001°37'0 0.0
2016-May-28 07:33N 47°12' W 001°37'0 0.0
2016-May-28 06:33N 47°12' W 001°37'0 0.0
2016-May-28 05:33N 47°12' W 001°37'0 0.0
2016-May-28 04:33N 47°12' W 001°37'0 0.0
2016-May-28 03:33N 47°12' W 001°37'0 0.0
2016-May-28 02:33N 47°12' W 001°37'0 0.0
2016-May-28 01:34N 47°12' W 001°37'0 0.0
2016-May-28 00:33N 47°12' W 001°37'0 0.0
2016-May-27 23:33N 47°12' W 001°37'0 0.0
2016-May-27 22:33N 47°12' W 001°37'0 0.0
2016-May-27 21:34N 47°12' W 001°37'0 0.0
2016-May-27 20:34N 47°12' W 001°37'1 0.7
2016-May-27 19:33N 47°12' W 001°38'0 0.0
2016-May-27 18:33N 47°12' W 001°38'4 3.6
2016-May-27 17:33N 47°12' W 001°43'1010.5
2016-May-27 16:33N 47°17' W 001°57'1010.2
2016-May-27 15:33N 47°16' W 002°12'1010.3
2016-May-27 14:33N 47°07' W 002°21'3 2.6
2016-May-27 13:33N 47°05' W 002°21'0 0.0
2016-May-27 12:33N 47°05' W 002°21'0 0.2
2016-May-27 11:33N 47°05' W 002°21'4 3.6
2016-May-27 10:32N 47°08' W 002°20'1010.4
2016-May-27 09:33N 47°16' W 002°11'1010.1
2016-May-27 08:34N 47°17' W 001°56'10 9.7
2016-May-27 07:33N 47°12' W 001°43'4 3.8
2016-May-27 06:34N 47°12' W 001°38'0 0.0
2016-May-27 05:34N 47°12' W 001°38'7 7.4
2016-May-27 04:34N 47°13' W 001°49'10 9.9
2016-May-27 03:33N 47°18' W 002°01'10 9.6
2016-May-27 02:33N 47°14' W 002°15'10 9.8
2016-May-27 01:33N 47°05' W 002°21'1 0.8
2016-May-27 00:33N 47°05' W 002°21'0 0.3
2016-May-26 23:34N 47°05' W 002°21'0 0.0
2016-May-26 22:33N 47°05' W 002°21'7 7.0
2016-May-26 21:33N 47°12' W 002°18'1111.4
2016-May-26 20:33N 47°18' W 002°04'1111.4
2016-May-26 19:33N 47°13' W 001°49'7 7.4
2016-May-26 18:34N 47°12' W 001°38'0 0.0
2016-May-26 17:33N 47°12' W 001°38'2 2.4
2016-May-26 16:32N 47°12' W 001°41'1110.9
2016-May-26 15:33N 47°17' W 001°56'1110.6
2016-May-26 14:33N 47°16' W 002°11'1110.6
2016-May-26 13:33N 47°08' W 002°20'1 1.3
2016-May-26 12:33N 47°06' W 002°21'0 0.0
2016-May-26 11:34N 47°06' W 002°21'0 0.0
2016-May-26 10:33N 47°06' W 002°21'0 0.0
2016-May-26 09:33N 47°06' W 002°21'0 0.0
2016-May-26 08:33N 47°06' W 002°21'0 0.1
2016-May-26 07:34N 47°06' W 002°20'1 0.7
2016-May-26 06:34N 47°06' W 002°21'0 0.3
2016-May-26 05:33N 47°06' W 002°21'0 0.1
2016-May-26 04:34N 47°06' W 002°21'0 0.0
2016-May-26 03:34N 47°06' W 002°21'0 0.1
2016-May-26 02:32N 47°06' W 002°21'8 8.1
2016-May-26 01:33N 47°09' W 002°32'9 8.9
2016-May-26 00:33N 47°14' W 002°43'9 8.8
2016-May-25 23:33N 47°18' W 002°55'9 8.9
2016-May-25 22:33N 47°22' W 003°06'9 8.5
2016-May-25 21:33N 47°29' W 003°13'9 9.3
2016-May-25 20:33N 47°38' W 003°19'7 7.3
2016-May-25 19:34N 47°45' W 003°19'0 0.1
2016-May-25 18:33N 47°45' W 003°19'0 0.0
2016-May-25 17:33N 47°45' W 003°19'1 0.8
2016-May-25 16:34N 47°44' W 003°20'1 0.7
2016-May-25 15:33N 47°44' W 003°21'0 0.0
2016-May-25 14:33N 47°44' W 003°21'1 0.6
2016-May-25 13:33N 47°44' W 003°22'4 4.4
2016-May-25 12:33N 47°40' W 003°25'6 5.6
2016-May-25 11:33N 47°36' W 003°18'8 7.6
2016-May-25 10:33N 47°29' W 003°14'1111.0
2016-May-25 09:34N 47°21' W 003°03'1110.9
2016-May-25 08:34N 47°16' W 002°49'1110.7
2016-May-25 07:33N 47°10' W 002°35'1010.3
2016-May-25 06:33N 47°05' W 002°22'1 1.0
2016-May-25 05:34N 47°05' W 002°21'0 0.1
2016-May-25 04:33N 47°05' W 002°21'1 1.1
2016-May-25 03:33N 47°06' W 002°21'7 6.8
2016-May-25 02:32N 47°13' W 002°18'0 0.0
2016-May-25 01:32N 47°13' W 002°18'0 0.1
2016-May-25 00:32N 47°12' W 002°18'0 0.0
2016-May-24 23:32N 47°12' W 002°18'0 0.0
2016-May-24 22:32N 47°12' W 002°18'0 0.0
2016-May-24 21:32N 47°12' W 002°18'0 0.0
2016-May-24 20:32N 47°12' W 002°18'0 0.0
2016-May-24 19:29N 47°12' W 002°18'0 0.0
2016-May-24 18:32N 47°12' W 002°18'0 0.0
2016-May-24 17:30N 47°12' W 002°18'5 5.7
2016-May-24 16:33N 47°16' W 002°12'2 2.2
2016-May-24 15:33N 47°15' W 002°15'10 9.7
2016-May-24 14:29N 47°09' W 002°27'4 3.6
2016-May-24 13:30N 47°07' W 002°32'0 0.3
2016-May-24 12:30N 47°07' W 002°32'0 0.1
2016-May-24 11:30N 47°07' W 002°32'0 0.0
2016-May-24 10:29N 47°07' W 002°32'0 0.0
2016-May-24 09:25N 47°07' W 002°32'0 0.0
2016-May-24 08:25N 47°07' W 002°32'0 0.0
2016-May-24 07:29N 47°07' W 002°32'0 0.0
2016-May-24 06:30N 47°07' W 002°32'0 0.0
2016-May-24 05:29N 47°07' W 002°32'0 0.1
2016-May-24 04:30N 47°07' W 002°32'0 0.1
2016-May-24 03:33N 47°07' W 002°32'0 0.0
2016-May-24 02:33N 47°07' W 002°32'0 0.0
2016-May-24 01:33N 47°07' W 002°32'0 0.0
2016-May-24 00:34N 47°07' W 002°32'0 0.1
2016-May-23 23:29N 47°07' W 002°32'0 0.0
2016-May-23 22:33N 47°07' W 002°32'0 0.0
2016-May-23 21:33N 47°07' W 002°32'0 0.0
2016-May-23 20:34N 47°07' W 002°32'7 6.9
2016-May-23 19:33N 47°09' W 002°22'1211.5
2016-May-23 18:33N 47°17' W 002°10'1111.4
2016-May-23 17:33N 47°17' W 001°54'9 8.9
2016-May-23 16:33N 47°12' W 001°42'4 3.7
2016-May-23 15:34N 47°12' W 001°37'0 0.0
2016-May-23 14:33N 47°12' W 001°37'0 0.0
2016-May-23 13:33N 47°12' W 001°37'0 0.0
2016-May-23 12:33N 47°12' W 001°37'0 0.0
2016-May-23 11:34N 47°12' W 001°37'0 0.0
2016-May-23 10:34N 47°12' W 001°37'0 0.0
2016-May-23 09:34N 47°12' W 001°37'0 0.0
2016-May-23 08:34N 47°12' W 001°37'0 0.0
2016-May-23 07:33N 47°12' W 001°37'0 0.0
2016-May-23 06:34N 47°12' W 001°37'0 0.0
2016-May-23 05:33N 47°12' W 001°37'0 0.0
2016-May-23 04:33N 47°12' W 001°37'0 0.0
2016-May-23 03:33N 47°12' W 001°37'0 0.0
2016-May-23 02:33N 47°12' W 001°37'0 0.0
2016-May-23 01:34N 47°12' W 001°37'0 0.0
2016-May-23 00:33N 47°12' W 001°37'0 0.0
2016-May-22 23:33N 47°12' W 001°37'0 0.0
2016-May-22 22:33N 47°12' W 001°37'0 0.0
2016-May-22 21:33N 47°12' W 001°37'0 0.0
2016-May-22 20:34N 47°12' W 001°37'0 0.0
2016-May-22 19:33N 47°12' W 001°37'0 0.0
2016-May-22 18:33N 47°12' W 001°37'0 0.0
2016-May-22 17:34N 47°12' W 001°37'0 0.0
2016-May-22 16:34N 47°12' W 001°37'0 0.0
2016-May-22 15:33N 47°12' W 001°37'0 0.0
2016-May-22 14:33N 47°12' W 001°37'0 0.0
2016-May-22 13:33N 47°12' W 001°37'0 0.0
2016-May-22 12:33N 47°12' W 001°37'0 0.0
2016-May-22 11:34N 47°12' W 001°37'0 0.0
2016-May-22 10:33N 47°12' W 001°37'0 0.0
2016-May-22 09:33N 47°12' W 001°37'0 0.0
2016-May-22 08:33N 47°12' W 001°37'0 0.0
2016-May-22 07:33N 47°12' W 001°37'0 0.0
2016-May-22 06:34N 47°12' W 001°37'0 0.0
2016-May-22 05:33N 47°12' W 001°37'0 0.0
2016-May-22 04:33N 47°12' W 001°37'0 0.0
2016-May-22 03:34N 47°12' W 001°37'0 0.0
2016-May-22 02:33N 47°12' W 001°37'0 0.0
2016-May-22 01:33N 47°12' W 001°37'0 0.0
2016-May-22 00:34N 47°12' W 001°37'0 0.0
2016-May-21 23:34N 47°12' W 001°37'0 0.0
2016-May-21 22:34N 47°12' W 001°37'0 0.0
2016-May-21 21:33N 47°12' W 001°37'0 0.0
2016-May-21 20:33N 47°12' W 001°37'0 0.0
2016-May-21 19:33N 47°12' W 001°37'0 0.0
2016-May-21 18:33N 47°12' W 001°37'0 0.0
2016-May-21 17:33N 47°12' W 001°37'0 0.0
2016-May-21 16:34N 47°12' W 001°37'0 0.0
2016-May-21 15:34N 47°12' W 001°37'0 0.0
2016-May-21 14:33N 47°12' W 001°37'0 0.0
2016-May-21 13:34N 47°12' W 001°37'0 0.0
2016-May-21 12:33N 47°12' W 001°37'0 0.0
2016-May-21 11:34N 47°12' W 001°37'0 0.0
2016-May-21 10:33N 47°12' W 001°37'0 0.0
2016-May-21 09:33N 47°12' W 001°37'1 0.8
2016-May-21 08:34N 47°12' W 001°38'0 0.1
2016-May-21 07:34N 47°12' W 001°38'0 0.0
2016-May-21 06:34N 47°12' W 001°38'0 0.0
2016-May-21 05:33N 47°12' W 001°38'4 3.8
2016-May-21 04:34N 47°12' W 001°43'9 9.2
2016-May-21 03:34N 47°17' W 001°55'1110.5
2016-May-21 02:33N 47°16' W 002°11'1111.0
2016-May-21 01:33N 47°07' W 002°20'3 2.8
2016-May-21 00:34N 47°05' W 002°21'0 0.2
2016-May-20 23:34N 47°05' W 002°21'0 0.3
2016-May-20 22:33N 47°05' W 002°21'1211.7
2016-May-20 21:33N 47°11' W 002°36'1212.1
2016-May-20 20:34N 47°17' W 002°52'1212.1
2016-May-20 19:34N 47°23' W 003°07'1211.8
2016-May-20 18:33N 47°33' W 003°16'1111.2
2016-May-20 17:33N 47°43' W 003°22'2 2.4
2016-May-20 16:33N 47°45' W 003°19'0 0.0
2016-May-20 15:33N 47°45' W 003°19'0 0.0
2016-May-20 14:33N 47°45' W 003°19'2 1.8
2016-May-20 13:34N 47°44' W 003°21'5 4.5
2016-May-20 12:34N 47°40' W 003°24'  

Dump ship's entire track history